sensor_id;sensor_type;location;lat;lon;timestamp;P1;durP1;ratioP1;P2;durP2;ratioP2
37641;SDS011;23486;51.956;5.888;2022-10-30T00:02:11;14.30;;;5.22;;
37641;SDS011;23486;51.956;5.888;2022-10-30T00:04:36;12.07;;;5.00;;
37641;SDS011;23486;51.956;5.888;2022-10-30T00:07:02;9.07;;;5.05;;
37641;SDS011;23486;51.956;5.888;2022-10-30T00:09:27;12.73;;;5.07;;
37641;SDS011;23486;51.956;5.888;2022-10-30T00:11:53;7.97;;;4.68;;
37641;SDS011;23486;51.956;5.888;2022-10-30T00:14:18;8.93;;;4.60;;
37641;SDS011;23486;51.956;5.888;2022-10-30T00:16:44;8.55;;;4.75;;
37641;SDS011;23486;51.956;5.888;2022-10-30T00:19:10;11.25;;;4.68;;
37641;SDS011;23486;51.956;5.888;2022-10-30T00:21:35;11.32;;;5.35;;
37641;SDS011;23486;51.956;5.888;2022-10-30T00:24:01;8.25;;;4.53;;
37641;SDS011;23486;51.956;5.888;2022-10-30T00:26:26;10.35;;;4.72;;
37641;SDS011;23486;51.956;5.888;2022-10-30T00:28:52;11.55;;;5.63;;
37641;SDS011;23486;51.956;5.888;2022-10-30T00:31:25;6.47;;;4.65;;
37641;SDS011;23486;51.956;5.888;2022-10-30T00:33:51;13.43;;;5.82;;
37641;SDS011;23486;51.956;5.888;2022-10-30T00:36:17;14.25;;;5.93;;
37641;SDS011;23486;51.956;5.888;2022-10-30T00:38:43;9.68;;;5.07;;
37641;SDS011;23486;51.956;5.888;2022-10-30T00:41:16;11.80;;;5.72;;
37641;SDS011;23486;51.956;5.888;2022-10-30T00:43:44;10.23;;;5.32;;
37641;SDS011;23486;51.956;5.888;2022-10-30T00:48:57;14.45;;;4.55;;
37641;SDS011;23486;51.956;5.888;2022-10-30T00:51:29;12.55;;;6.10;;
37641;SDS011;23486;51.956;5.888;2022-10-30T00:53:58;10.15;;;5.07;;
37641;SDS011;23486;51.956;5.888;2022-10-30T00:56:26;12.32;;;5.78;;
37641;SDS011;23486;51.956;5.888;2022-10-30T00:58:54;9.27;;;4.75;;
37641;SDS011;23486;51.956;5.888;2022-10-30T01:01:25;9.50;;;5.18;;
37641;SDS011;23486;51.956;5.888;2022-10-30T01:03:54;11.50;;;5.07;;
37641;SDS011;23486;51.956;5.888;2022-10-30T01:06:22;12.38;;;5.25;;
37641;SDS011;23486;51.956;5.888;2022-10-30T01:08:48;10.77;;;5.93;;
37641;SDS011;23486;51.956;5.888;2022-10-30T01:11:15;13.18;;;5.50;;
37641;SDS011;23486;51.956;5.888;2022-10-30T01:13:41;13.13;;;5.15;;
37641;SDS011;23486;51.956;5.888;2022-10-30T01:33:01;10.52;;;5.60;;
37641;SDS011;23486;51.956;5.888;2022-10-30T01:38:22;19.33;;;5.80;;
37641;SDS011;23486;51.956;5.888;2022-10-30T01:43:21;12.07;;;5.88;;
37641;SDS011;23486;51.956;5.888;2022-10-30T01:53:45;12.68;;;6.05;;
37641;SDS011;23486;51.956;5.888;2022-10-30T01:56:32;14.88;;;5.55;;
37641;SDS011;23486;51.956;5.888;2022-10-30T01:59:10;10.65;;;5.57;;
37641;SDS011;23486;51.956;5.888;2022-10-30T02:01:45;9.65;;;5.50;;
37641;SDS011;23486;51.956;5.888;2022-10-30T02:04:11;8.93;;;4.97;;
37641;SDS011;23486;51.956;5.888;2022-10-30T02:06:38;13.32;;;5.68;;
37641;SDS011;23486;51.956;5.888;2022-10-30T02:09:04;9.15;;;5.32;;
37641;SDS011;23486;51.956;5.888;2022-10-30T02:11:31;11.02;;;5.97;;
37641;SDS011;23486;51.956;5.888;2022-10-30T02:13:57;11.00;;;4.93;;
37641;SDS011;23486;51.956;5.888;2022-10-30T02:16:28;10.68;;;5.55;;
37641;SDS011;23486;51.956;5.888;2022-10-30T02:18:54;14.38;;;5.85;;
37641;SDS011;23486;51.956;5.888;2022-10-30T02:21:19;9.05;;;4.97;;
37641;SDS011;23486;51.956;5.888;2022-10-30T02:23:45;14.88;;;6.13;;
37641;SDS011;23486;51.956;5.888;2022-10-30T02:26:11;13.77;;;5.55;;
37641;SDS011;23486;51.956;5.888;2022-10-30T02:28:36;9.60;;;4.93;;
37641;SDS011;23486;51.956;5.888;2022-10-30T02:31:02;9.15;;;5.53;;
37641;SDS011;23486;51.956;5.888;2022-10-30T02:33:27;10.27;;;5.68;;
37641;SDS011;23486;51.956;5.888;2022-10-30T02:35:53;12.30;;;5.97;;
37641;SDS011;23486;51.956;5.888;2022-10-30T02:38:19;7.13;;;4.32;;
37641;SDS011;23486;51.956;5.888;2022-10-30T02:40:45;12.20;;;6.15;;
37641;SDS011;23486;51.956;5.888;2022-10-30T02:43:16;11.48;;;6.95;;
37641;SDS011;23486;51.956;5.888;2022-10-30T02:45:42;10.23;;;6.00;;
37641;SDS011;23486;51.956;5.888;2022-10-30T02:48:07;11.77;;;6.20;;
37641;SDS011;23486;51.956;5.888;2022-10-30T02:50:33;12.80;;;6.60;;
37641;SDS011;23486;51.956;5.888;2022-10-30T02:52:58;10.15;;;5.68;;
37641;SDS011;23486;51.956;5.888;2022-10-30T02:55:24;11.65;;;5.57;;
37641;SDS011;23486;51.956;5.888;2022-10-30T02:57:49;11.27;;;6.32;;
37641;SDS011;23486;51.956;5.888;2022-10-30T03:00:15;14.18;;;5.90;;
37641;SDS011;23486;51.956;5.888;2022-10-30T03:02:41;10.77;;;6.22;;
37641;SDS011;23486;51.956;5.888;2022-10-30T03:05:09;9.73;;;5.05;;
37641;SDS011;23486;51.956;5.888;2022-10-30T03:07:35;11.43;;;5.78;;
37641;SDS011;23486;51.956;5.888;2022-10-30T03:10:00;12.65;;;5.45;;
37641;SDS011;23486;51.956;5.888;2022-10-30T03:12:26;10.73;;;5.63;;
37641;SDS011;23486;51.956;5.888;2022-10-30T03:14:51;10.25;;;5.88;;
37641;SDS011;23486;51.956;5.888;2022-10-30T03:17:17;11.63;;;4.53;;
37641;SDS011;23486;51.956;5.888;2022-10-30T03:19:42;12.52;;;4.68;;
37641;SDS011;23486;51.956;5.888;2022-10-30T03:22:08;7.90;;;4.95;;
37641;SDS011;23486;51.956;5.888;2022-10-30T03:24:36;10.75;;;5.15;;
37641;SDS011;23486;51.956;5.888;2022-10-30T03:27:02;8.30;;;4.93;;
37641;SDS011;23486;51.956;5.888;2022-10-30T03:29:28;12.77;;;6.35;;
37641;SDS011;23486;51.956;5.888;2022-10-30T03:31:53;11.20;;;4.80;;
37641;SDS011;23486;51.956;5.888;2022-10-30T03:34:19;13.15;;;6.10;;
37641;SDS011;23486;51.956;5.888;2022-10-30T03:36:45;7.93;;;4.85;;
37641;SDS011;23486;51.956;5.888;2022-10-30T03:39:10;9.35;;;6.50;;
37641;SDS011;23486;51.956;5.888;2022-10-30T03:41:36;10.95;;;5.38;;
37641;SDS011;23486;51.956;5.888;2022-10-30T03:44:01;10.18;;;6.07;;
37641;SDS011;23486;51.956;5.888;2022-10-30T03:46:30;13.05;;;5.90;;
37641;SDS011;23486;51.956;5.888;2022-10-30T03:49:01;8.65;;;5.15;;
37641;SDS011;23486;51.956;5.888;2022-10-30T03:51:27;9.25;;;5.38;;
37641;SDS011;23486;51.956;5.888;2022-10-30T03:53:52;12.32;;;5.32;;
37641;SDS011;23486;51.956;5.888;2022-10-30T03:56:18;9.82;;;5.10;;
37641;SDS011;23486;51.956;5.888;2022-10-30T03:58:44;12.60;;;5.50;;
37641;SDS011;23486;51.956;5.888;2022-10-30T04:01:09;10.75;;;5.68;;
37641;SDS011;23486;51.956;5.888;2022-10-30T04:03:35;9.68;;;5.70;;
37641;SDS011;23486;51.956;5.888;2022-10-30T04:06:01;8.48;;;5.40;;
37641;SDS011;23486;51.956;5.888;2022-10-30T04:08:27;11.45;;;5.75;;
37641;SDS011;23486;51.956;5.888;2022-10-30T04:10:55;10.40;;;5.65;;
37641;SDS011;23486;51.956;5.888;2022-10-30T04:13:20;12.63;;;6.70;;
37641;SDS011;23486;51.956;5.888;2022-10-30T04:15:47;15.55;;;7.13;;
37641;SDS011;23486;51.956;5.888;2022-10-30T04:18:16;13.85;;;6.70;;
37641;SDS011;23486;51.956;5.888;2022-10-30T04:20:42;17.15;;;7.50;;
37641;SDS011;23486;51.956;5.888;2022-10-30T04:23:11;12.63;;;6.20;;
37641;SDS011;23486;51.956;5.888;2022-10-30T04:25:39;15.70;;;6.63;;
37641;SDS011;23486;51.956;5.888;2022-10-30T04:28:04;11.52;;;6.65;;
37641;SDS011;23486;51.956;5.888;2022-10-30T04:30:30;12.05;;;5.82;;
37641;SDS011;23486;51.956;5.888;2022-10-30T04:33:04;10.65;;;5.97;;
37641;SDS011;23486;51.956;5.888;2022-10-30T04:35:32;13.55;;;6.88;;
37641;SDS011;23486;51.956;5.888;2022-10-30T04:38:11;14.98;;;7.00;;
37641;SDS011;23486;51.956;5.888;2022-10-30T04:40:38;11.57;;;5.90;;
37641;SDS011;23486;51.956;5.888;2022-10-30T04:43:06;10.40;;;6.53;;
37641;SDS011;23486;51.956;5.888;2022-10-30T04:45:32;11.85;;;7.18;;
37641;SDS011;23486;51.956;5.888;2022-10-30T04:48:02;9.65;;;5.53;;
37641;SDS011;23486;51.956;5.888;2022-10-30T04:50:33;11.85;;;5.40;;
37641;SDS011;23486;51.956;5.888;2022-10-30T04:52:59;10.93;;;5.90;;
37641;SDS011;23486;51.956;5.888;2022-10-30T04:55:27;10.70;;;6.43;;
37641;SDS011;23486;51.956;5.888;2022-10-30T04:57:59;13.63;;;6.72;;
37641;SDS011;23486;51.956;5.888;2022-10-30T05:00:27;15.07;;;7.43;;
37641;SDS011;23486;51.956;5.888;2022-10-30T05:02:53;10.27;;;5.65;;
37641;SDS011;23486;51.956;5.888;2022-10-30T05:05:18;11.57;;;6.28;;
37641;SDS011;23486;51.956;5.888;2022-10-30T05:07:44;11.30;;;5.47;;
37641;SDS011;23486;51.956;5.888;2022-10-30T05:10:11;10.82;;;6.40;;
37641;SDS011;23486;51.956;5.888;2022-10-30T05:12:42;11.50;;;6.57;;
37641;SDS011;23486;51.956;5.888;2022-10-30T05:15:09;9.65;;;6.03;;
37641;SDS011;23486;51.956;5.888;2022-10-30T05:17:35;12.10;;;7.13;;
37641;SDS011;23486;51.956;5.888;2022-10-30T05:20:01;10.10;;;5.60;;
37641;SDS011;23486;51.956;5.888;2022-10-30T05:22:27;12.15;;;6.40;;
37641;SDS011;23486;51.956;5.888;2022-10-30T05:24:53;12.18;;;7.32;;
37641;SDS011;23486;51.956;5.888;2022-10-30T05:27:21;14.00;;;6.68;;
37641;SDS011;23486;51.956;5.888;2022-10-30T05:29:47;12.45;;;7.03;;
37641;SDS011;23486;51.956;5.888;2022-10-30T05:32:12;13.35;;;7.05;;
37641;SDS011;23486;51.956;5.888;2022-10-30T05:34:38;13.60;;;6.75;;
37641;SDS011;23486;51.956;5.888;2022-10-30T05:37:03;12.02;;;7.05;;
37641;SDS011;23486;51.956;5.888;2022-10-30T05:39:29;12.95;;;7.30;;
37641;SDS011;23486;51.956;5.888;2022-10-30T05:41:55;15.73;;;7.00;;
37641;SDS011;23486;51.956;5.888;2022-10-30T05:44:20;15.23;;;7.57;;
37641;SDS011;23486;51.956;5.888;2022-10-30T05:46:46;12.98;;;6.88;;
37641;SDS011;23486;51.956;5.888;2022-10-30T05:49:11;15.25;;;6.95;;
37641;SDS011;23486;51.956;5.888;2022-10-30T05:51:37;11.65;;;6.18;;
37641;SDS011;23486;51.956;5.888;2022-10-30T05:54:02;11.25;;;5.65;;
37641;SDS011;23486;51.956;5.888;2022-10-30T05:56:28;13.15;;;6.32;;
37641;SDS011;23486;51.956;5.888;2022-10-30T05:58:54;10.52;;;6.80;;
37641;SDS011;23486;51.956;5.888;2022-10-30T06:01:20;13.07;;;7.40;;
37641;SDS011;23486;51.956;5.888;2022-10-30T06:03:45;14.38;;;7.35;;
37641;SDS011;23486;51.956;5.888;2022-10-30T06:06:11;9.80;;;6.25;;
37641;SDS011;23486;51.956;5.888;2022-10-30T06:08:37;11.20;;;7.60;;
37641;SDS011;23486;51.956;5.888;2022-10-30T06:11:02;12.25;;;7.70;;
37641;SDS011;23486;51.956;5.888;2022-10-30T06:13:28;12.68;;;7.15;;
37641;SDS011;23486;51.956;5.888;2022-10-30T06:15:54;11.82;;;6.90;;
37641;SDS011;23486;51.956;5.888;2022-10-30T06:18:20;11.02;;;7.70;;
37641;SDS011;23486;51.956;5.888;2022-10-30T06:20:46;14.68;;;7.53;;
37641;SDS011;23486;51.956;5.888;2022-10-30T06:23:11;12.10;;;6.47;;
37641;SDS011;23486;51.956;5.888;2022-10-30T06:25:37;13.20;;;7.55;;
37641;SDS011;23486;51.956;5.888;2022-10-30T06:28:06;11.65;;;7.30;;
37641;SDS011;23486;51.956;5.888;2022-10-30T06:30:33;13.05;;;6.53;;
37641;SDS011;23486;51.956;5.888;2022-10-30T06:33:05;11.60;;;6.00;;
37641;SDS011;23486;51.956;5.888;2022-10-30T06:35:31;12.02;;;7.20;;
37641;SDS011;23486;51.956;5.888;2022-10-30T06:37:57;11.20;;;6.70;;
37641;SDS011;23486;51.956;5.888;2022-10-30T06:40:24;11.73;;;6.18;;
37641;SDS011;23486;51.956;5.888;2022-10-30T06:42:51;12.65;;;7.10;;
37641;SDS011;23486;51.956;5.888;2022-10-30T06:45:20;13.80;;;7.18;;
37641;SDS011;23486;51.956;5.888;2022-10-30T06:47:46;13.52;;;7.78;;
37641;SDS011;23486;51.956;5.888;2022-10-30T06:50:14;16.02;;;8.10;;
37641;SDS011;23486;51.956;5.888;2022-10-30T06:52:48;11.13;;;7.30;;
37641;SDS011;23486;51.956;5.888;2022-10-30T06:55:13;13.38;;;7.90;;
37641;SDS011;23486;51.956;5.888;2022-10-30T06:57:39;10.90;;;7.47;;
37641;SDS011;23486;51.956;5.888;2022-10-30T07:00:05;11.93;;;7.63;;
37641;SDS011;23486;51.956;5.888;2022-10-30T07:02:32;12.13;;;7.85;;
37641;SDS011;23486;51.956;5.888;2022-10-30T07:04:58;17.08;;;7.82;;
37641;SDS011;23486;51.956;5.888;2022-10-30T07:07:23;11.60;;;6.90;;
37641;SDS011;23486;51.956;5.888;2022-10-30T07:09:49;13.80;;;8.93;;
37641;SDS011;23486;51.956;5.888;2022-10-30T07:12:14;16.27;;;8.20;;
37641;SDS011;23486;51.956;5.888;2022-10-30T07:14:40;9.40;;;6.68;;
37641;SDS011;23486;51.956;5.888;2022-10-30T07:17:06;15.82;;;9.38;;
37641;SDS011;23486;51.956;5.888;2022-10-30T07:19:32;20.55;;;8.52;;
37641;SDS011;23486;51.956;5.888;2022-10-30T07:21:57;13.13;;;7.90;;
37641;SDS011;23486;51.956;5.888;2022-10-30T07:24:25;17.58;;;7.78;;
37641;SDS011;23486;51.956;5.888;2022-10-30T07:26:50;10.80;;;7.28;;
37641;SDS011;23486;51.956;5.888;2022-10-30T07:29:16;11.75;;;7.70;;
37641;SDS011;23486;51.956;5.888;2022-10-30T07:31:41;12.30;;;7.97;;
37641;SDS011;23486;51.956;5.888;2022-10-30T07:34:07;13.85;;;8.38;;
37641;SDS011;23486;51.956;5.888;2022-10-30T07:36:33;12.57;;;8.52;;
37641;SDS011;23486;51.956;5.888;2022-10-30T07:38:58;11.68;;;7.60;;
37641;SDS011;23486;51.956;5.888;2022-10-30T07:41:24;15.82;;;9.02;;
37641;SDS011;23486;51.956;5.888;2022-10-30T07:43:55;22.20;;;9.35;;
37641;SDS011;23486;51.956;5.888;2022-10-30T07:46:21;15.55;;;10.10;;
37641;SDS011;23486;51.956;5.888;2022-10-30T07:48:47;16.55;;;10.68;;
37641;SDS011;23486;51.956;5.888;2022-10-30T07:51:12;16.20;;;9.18;;
37641;SDS011;23486;51.956;5.888;2022-10-30T07:53:39;14.82;;;9.43;;
37641;SDS011;23486;51.956;5.888;2022-10-30T07:56:05;16.67;;;9.43;;
37641;SDS011;23486;51.956;5.888;2022-10-30T07:58:31;22.10;;;11.68;;
37641;SDS011;23486;51.956;5.888;2022-10-30T08:00:56;13.55;;;9.48;;
37641;SDS011;23486;51.956;5.888;2022-10-30T08:03:22;17.90;;;9.25;;
37641;SDS011;23486;51.956;5.888;2022-10-30T08:05:47;14.55;;;10.30;;
37641;SDS011;23486;51.956;5.888;2022-10-30T08:08:13;17.08;;;9.93;;
37641;SDS011;23486;51.956;5.888;2022-10-30T08:10:38;19.17;;;10.65;;
37641;SDS011;23486;51.956;5.888;2022-10-30T08:13:04;15.95;;;10.15;;
37641;SDS011;23486;51.956;5.888;2022-10-30T08:15:30;18.80;;;11.90;;
37641;SDS011;23486;51.956;5.888;2022-10-30T08:17:56;17.55;;;11.25;;
37641;SDS011;23486;51.956;5.888;2022-10-30T08:20:23;19.48;;;11.18;;
37641;SDS011;23486;51.956;5.888;2022-10-30T08:22:52;17.40;;;11.63;;
37641;SDS011;23486;51.956;5.888;2022-10-30T08:25:20;18.23;;;11.10;;
37641;SDS011;23486;51.956;5.888;2022-10-30T08:27:55;17.70;;;12.32;;
37641;SDS011;23486;51.956;5.888;2022-10-30T08:30:22;17.27;;;12.13;;
37641;SDS011;23486;51.956;5.888;2022-10-30T08:32:48;18.38;;;11.57;;
37641;SDS011;23486;51.956;5.888;2022-10-30T08:35:14;17.25;;;11.05;;
37641;SDS011;23486;51.956;5.888;2022-10-30T08:37:40;17.48;;;11.55;;
37641;SDS011;23486;51.956;5.888;2022-10-30T08:40:06;20.92;;;12.07;;
37641;SDS011;23486;51.956;5.888;2022-10-30T08:42:32;22.70;;;13.15;;
37641;SDS011;23486;51.956;5.888;2022-10-30T08:44:58;15.30;;;10.35;;
37641;SDS011;23486;51.956;5.888;2022-10-30T08:47:23;20.30;;;12.30;;
37641;SDS011;23486;51.956;5.888;2022-10-30T08:49:49;26.67;;;13.05;;
37641;SDS011;23486;51.956;5.888;2022-10-30T08:52:14;16.20;;;11.80;;
37641;SDS011;23486;51.956;5.888;2022-10-30T08:54:40;22.08;;;12.25;;
37641;SDS011;23486;51.956;5.888;2022-10-30T08:57:05;19.13;;;11.70;;
37641;SDS011;23486;51.956;5.888;2022-10-30T08:59:31;16.45;;;11.10;;
37641;SDS011;23486;51.956;5.888;2022-10-30T09:01:56;14.25;;;10.27;;
37641;SDS011;23486;51.956;5.888;2022-10-30T09:04:22;20.05;;;11.60;;
37641;SDS011;23486;51.956;5.888;2022-10-30T09:06:48;17.48;;;12.05;;
37641;SDS011;23486;51.956;5.888;2022-10-30T09:09:13;18.02;;;12.15;;
37641;SDS011;23486;51.956;5.888;2022-10-30T09:11:39;16.88;;;12.05;;
37641;SDS011;23486;51.956;5.888;2022-10-30T09:14:05;18.40;;;12.02;;
37641;SDS011;23486;51.956;5.888;2022-10-30T09:16:30;17.17;;;11.43;;
37641;SDS011;23486;51.956;5.888;2022-10-30T09:18:58;17.50;;;11.32;;
37641;SDS011;23486;51.956;5.888;2022-10-30T09:21:24;20.08;;;11.90;;
37641;SDS011;23486;51.956;5.888;2022-10-30T09:23:50;21.17;;;12.02;;
37641;SDS011;23486;51.956;5.888;2022-10-30T09:26:15;16.90;;;11.52;;
37641;SDS011;23486;51.956;5.888;2022-10-30T09:28:41;17.58;;;11.80;;
37641;SDS011;23486;51.956;5.888;2022-10-30T09:31:06;22.00;;;11.80;;
37641;SDS011;23486;51.956;5.888;2022-10-30T09:33:32;17.75;;;12.18;;
37641;SDS011;23486;51.956;5.888;2022-10-30T09:35:57;16.10;;;11.73;;
37641;SDS011;23486;51.956;5.888;2022-10-30T09:38:23;17.98;;;11.00;;
37641;SDS011;23486;51.956;5.888;2022-10-30T09:40:59;17.85;;;11.73;;
37641;SDS011;23486;51.956;5.888;2022-10-30T09:43:46;20.45;;;11.68;;
37641;SDS011;23486;51.956;5.888;2022-10-30T09:46:26;16.80;;;11.32;;
37641;SDS011;23486;51.956;5.888;2022-10-30T09:49:12;18.17;;;10.88;;
37641;SDS011;23486;51.956;5.888;2022-10-30T10:02:51;18.95;;;10.40;;
37641;SDS011;23486;51.956;5.888;2022-10-30T10:05:54;18.75;;;10.68;;
37641;SDS011;23486;51.956;5.888;2022-10-30T10:08:28;20.00;;;11.48;;
37641;SDS011;23486;51.956;5.888;2022-10-30T10:11:02;17.52;;;10.88;;
37641;SDS011;23486;51.956;5.888;2022-10-30T10:14:36;19.35;;;11.00;;
37641;SDS011;23486;51.956;5.888;2022-10-30T10:16:38;15.85;;;11.18;;
37641;SDS011;23486;51.956;5.888;2022-10-30T10:19:18;16.02;;;11.57;;
37641;SDS011;23486;51.956;5.888;2022-10-30T10:24:26;16.15;;;10.30;;
37641;SDS011;23486;51.956;5.888;2022-10-30T10:27:06;18.05;;;12.18;;
37641;SDS011;23486;51.956;5.888;2022-10-30T10:29:41;20.20;;;12.07;;
37641;SDS011;23486;51.956;5.888;2022-10-30T10:38:20;14.52;;;10.45;;
37641;SDS011;23486;51.956;5.888;2022-10-30T10:44:11;15.18;;;11.20;;
37641;SDS011;23486;51.956;5.888;2022-10-30T10:47:06;17.35;;;11.32;;
37641;SDS011;23486;51.956;5.888;2022-10-30T10:52:22;15.90;;;9.95;;
37641;SDS011;23486;51.956;5.888;2022-10-30T10:55:01;12.95;;;8.93;;
37641;SDS011;23486;51.956;5.888;2022-10-30T10:57:35;18.27;;;10.93;;
37641;SDS011;23486;51.956;5.888;2022-10-30T11:02:37;17.58;;;9.32;;
37641;SDS011;23486;51.956;5.888;2022-10-30T11:05:16;16.67;;;9.85;;
37641;SDS011;23486;51.956;5.888;2022-10-30T11:07:49;15.60;;;9.13;;
37641;SDS011;23486;51.956;5.888;2022-10-30T11:10:16;23.10;;;9.52;;
37641;SDS011;23486;51.956;5.888;2022-10-30T11:12:44;14.63;;;9.68;;
37641;SDS011;23486;51.956;5.888;2022-10-30T11:15:21;13.82;;;9.45;;
37641;SDS011;23486;51.956;5.888;2022-10-30T11:18:05;14.23;;;8.57;;
37641;SDS011;23486;51.956;5.888;2022-10-30T11:20:35;13.40;;;8.77;;
37641;SDS011;23486;51.956;5.888;2022-10-30T11:23:01;17.38;;;9.73;;
37641;SDS011;23486;51.956;5.888;2022-10-30T11:25:32;15.48;;;9.30;;
37641;SDS011;23486;51.956;5.888;2022-10-30T11:27:59;14.50;;;8.48;;
37641;SDS011;23486;51.956;5.888;2022-10-30T11:30:27;15.50;;;9.57;;
37641;SDS011;23486;51.956;5.888;2022-10-30T11:32:53;16.23;;;10.50;;
37641;SDS011;23486;51.956;5.888;2022-10-30T11:35:20;17.00;;;9.35;;
37641;SDS011;23486;51.956;5.888;2022-10-30T11:38:10;19.42;;;9.32;;
37641;SDS011;23486;51.956;5.888;2022-10-30T11:40:38;18.60;;;10.05;;
37641;SDS011;23486;51.956;5.888;2022-10-30T11:43:05;16.15;;;8.98;;
37641;SDS011;23486;51.956;5.888;2022-10-30T11:45:36;15.43;;;9.27;;
37641;SDS011;23486;51.956;5.888;2022-10-30T11:48:09;13.68;;;8.15;;
37641;SDS011;23486;51.956;5.888;2022-10-30T11:50:44;17.15;;;9.73;;
37641;SDS011;23486;51.956;5.888;2022-10-30T11:53:22;20.23;;;8.70;;
37641;SDS011;23486;51.956;5.888;2022-10-30T11:55:58;13.02;;;7.90;;
37641;SDS011;23486;51.956;5.888;2022-10-30T11:58:36;14.85;;;7.93;;
37641;SDS011;23486;51.956;5.888;2022-10-30T12:01:51;11.48;;;7.65;;
37641;SDS011;23486;51.956;5.888;2022-10-30T12:03:52;13.70;;;8.18;;
37641;SDS011;23486;51.956;5.888;2022-10-30T12:06:25;13.02;;;7.30;;
37641;SDS011;23486;51.956;5.888;2022-10-30T12:11:29;14.48;;;7.43;;
37641;SDS011;23486;51.956;5.888;2022-10-30T12:13:56;11.45;;;6.47;;
37641;SDS011;23486;51.956;5.888;2022-10-30T12:16:23;10.40;;;5.97;;
37641;SDS011;23486;51.956;5.888;2022-10-30T12:18:51;13.60;;;6.07;;
37641;SDS011;23486;51.956;5.888;2022-10-30T12:21:18;11.90;;;5.75;;
37641;SDS011;23486;51.956;5.888;2022-10-30T12:23:49;11.23;;;5.72;;
37641;SDS011;23486;51.956;5.888;2022-10-30T12:26:25;8.57;;;4.65;;
37641;SDS011;23486;51.956;5.888;2022-10-30T12:28:57;12.70;;;5.10;;
37641;SDS011;23486;51.956;5.888;2022-10-30T12:31:28;9.63;;;5.78;;
37641;SDS011;23486;51.956;5.888;2022-10-30T12:34:22;11.75;;;5.57;;
37641;SDS011;23486;51.956;5.888;2022-10-30T12:40:03;10.70;;;4.80;;
37641;SDS011;23486;51.956;5.888;2022-10-30T12:42:39;11.70;;;5.55;;
37641;SDS011;23486;51.956;5.888;2022-10-30T12:45:20;13.20;;;5.72;;
37641;SDS011;23486;51.956;5.888;2022-10-30T12:47:58;10.23;;;4.93;;
37641;SDS011;23486;51.956;5.888;2022-10-30T12:50:34;10.05;;;5.10;;
37641;SDS011;23486;51.956;5.888;2022-10-30T12:53:49;12.50;;;5.05;;
37641;SDS011;23486;51.956;5.888;2022-10-30T12:56:05;8.52;;;4.82;;
37641;SDS011;23486;51.956;5.888;2022-10-30T12:58:39;11.25;;;5.35;;
37641;SDS011;23486;51.956;5.888;2022-10-30T13:01:31;10.15;;;5.10;;
37641;SDS011;23486;51.956;5.888;2022-10-30T13:04:06;9.25;;;5.53;;
37641;SDS011;23486;51.956;5.888;2022-10-30T13:06:42;11.65;;;5.70;;
37641;SDS011;23486;51.956;5.888;2022-10-30T13:09:31;14.05;;;5.25;;
37641;SDS011;23486;51.956;5.888;2022-10-30T13:12:02;9.77;;;5.80;;
37641;SDS011;23486;51.956;5.888;2022-10-30T13:14:56;12.68;;;5.75;;
37641;SDS011;23486;51.956;5.888;2022-10-30T13:17:27;12.70;;;5.82;;
37641;SDS011;23486;51.956;5.888;2022-10-30T13:19:53;15.13;;;5.25;;
37641;SDS011;23486;51.956;5.888;2022-10-30T13:25:07;9.75;;;5.13;;
37641;SDS011;23486;51.956;5.888;2022-10-30T13:27:49;10.38;;;4.85;;
37641;SDS011;23486;51.956;5.888;2022-10-30T13:30:36;9.07;;;5.07;;
37641;SDS011;23486;51.956;5.888;2022-10-30T13:36:02;8.25;;;5.10;;
37641;SDS011;23486;51.956;5.888;2022-10-30T13:38:34;11.95;;;5.32;;
37641;SDS011;23486;51.956;5.888;2022-10-30T13:47:03;8.85;;;4.55;;
37641;SDS011;23486;51.956;5.888;2022-10-30T13:49:46;11.48;;;4.90;;
37641;SDS011;23486;51.956;5.888;2022-10-30T13:52:26;13.48;;;5.38;;
37641;SDS011;23486;51.956;5.888;2022-10-30T13:54:57;11.50;;;4.93;;
37641;SDS011;23486;51.956;5.888;2022-10-30T14:00:23;11.43;;;4.60;;
37641;SDS011;23486;51.956;5.888;2022-10-30T14:03:25;9.60;;;5.10;;
37641;SDS011;23486;51.956;5.888;2022-10-30T14:11:18;11.07;;;5.00;;
37641;SDS011;23486;51.956;5.888;2022-10-30T14:19:02;12.65;;;5.25;;
37641;SDS011;23486;51.956;5.888;2022-10-30T14:24:28;12.05;;;6.40;;
37641;SDS011;23486;51.956;5.888;2022-10-30T14:37:14;11.95;;;6.15;;
37641;SDS011;23486;51.956;5.888;2022-10-30T14:39:46;12.77;;;5.93;;
37641;SDS011;23486;51.956;5.888;2022-10-30T14:44:50;13.93;;;6.70;;
37641;SDS011;23486;51.956;5.888;2022-10-30T14:56:18;13.13;;;6.60;;
37641;SDS011;23486;51.956;5.888;2022-10-30T15:01:57;9.95;;;6.47;;
37641;SDS011;23486;51.956;5.888;2022-10-30T15:13:03;11.85;;;5.95;;
37641;SDS011;23486;51.956;5.888;2022-10-30T15:15:30;10.48;;;6.13;;
37641;SDS011;23486;51.956;5.888;2022-10-30T15:17:57;11.93;;;7.85;;
37641;SDS011;23486;51.956;5.888;2022-10-30T15:20:30;10.93;;;6.43;;
37641;SDS011;23486;51.956;5.888;2022-10-30T15:22:59;10.82;;;6.53;;
37641;SDS011;23486;51.956;5.888;2022-10-30T15:25:54;14.00;;;7.55;;
37641;SDS011;23486;51.956;5.888;2022-10-30T15:28:29;13.90;;;6.63;;
37641;SDS011;23486;51.956;5.888;2022-10-30T15:33:44;13.95;;;7.00;;
37641;SDS011;23486;51.956;5.888;2022-10-30T15:38:58;13.23;;;7.32;;
37641;SDS011;23486;51.956;5.888;2022-10-30T15:41:43;11.07;;;7.20;;
37641;SDS011;23486;51.956;5.888;2022-10-30T15:44:10;12.93;;;7.65;;
37641;SDS011;23486;51.956;5.888;2022-10-30T15:46:37;8.50;;;6.03;;
37641;SDS011;23486;51.956;5.888;2022-10-30T15:49:03;7.95;;;6.38;;
37641;SDS011;23486;51.956;5.888;2022-10-30T15:51:31;11.52;;;7.60;;
37641;SDS011;23486;51.956;5.888;2022-10-30T15:53:59;14.90;;;7.60;;
37641;SDS011;23486;51.956;5.888;2022-10-30T15:56:27;12.82;;;7.28;;
37641;SDS011;23486;51.956;5.888;2022-10-30T15:58:57;14.30;;;8.35;;
37641;SDS011;23486;51.956;5.888;2022-10-30T16:01:32;13.52;;;7.43;;
37641;SDS011;23486;51.956;5.888;2022-10-30T16:04:22;13.98;;;7.53;;
37641;SDS011;23486;51.956;5.888;2022-10-30T16:06:50;11.85;;;7.00;;
37641;SDS011;23486;51.956;5.888;2022-10-30T16:09:18;15.02;;;8.05;;
37641;SDS011;23486;51.956;5.888;2022-10-30T16:11:45;15.25;;;8.07;;
37641;SDS011;23486;51.956;5.888;2022-10-30T16:14:16;20.40;;;7.63;;
37641;SDS011;23486;51.956;5.888;2022-10-30T16:16:46;15.23;;;8.80;;
37641;SDS011;23486;51.956;5.888;2022-10-30T16:19:18;14.02;;;8.90;;
37641;SDS011;23486;51.956;5.888;2022-10-30T16:21:47;13.52;;;7.97;;
37641;SDS011;23486;51.956;5.888;2022-10-30T16:24:13;16.83;;;9.55;;
37641;SDS011;23486;51.956;5.888;2022-10-30T16:26:41;13.68;;;9.00;;
37641;SDS011;23486;51.956;5.888;2022-10-30T16:31:41;18.52;;;10.70;;
37641;SDS011;23486;51.956;5.888;2022-10-30T16:34:09;16.38;;;10.15;;
37641;SDS011;23486;51.956;5.888;2022-10-30T16:36:40;20.15;;;11.80;;
37641;SDS011;23486;51.956;5.888;2022-10-30T16:39:07;17.52;;;12.18;;
37641;SDS011;23486;51.956;5.888;2022-10-30T16:41:38;20.92;;;10.45;;
37641;SDS011;23486;51.956;5.888;2022-10-30T16:44:46;18.20;;;10.60;;
37641;SDS011;23486;51.956;5.888;2022-10-30T16:46:54;18.73;;;10.75;;
37641;SDS011;23486;51.956;5.888;2022-10-30T16:49:28;25.98;;;12.25;;
37641;SDS011;23486;51.956;5.888;2022-10-30T16:52:05;17.88;;;10.77;;
37641;SDS011;23486;51.956;5.888;2022-10-30T16:54:33;19.27;;;10.02;;
37641;SDS011;23486;51.956;5.888;2022-10-30T16:57:02;22.27;;;10.55;;
37641;SDS011;23486;51.956;5.888;2022-10-30T16:59:43;18.30;;;10.88;;
37641;SDS011;23486;51.956;5.888;2022-10-30T17:02:21;17.02;;;9.85;;
37641;SDS011;23486;51.956;5.888;2022-10-30T17:04:50;17.23;;;10.52;;